createdAt,value
2019-01-04T00:01:58.105Z,103159.73
2019-01-04T00:04:26.947Z,103161.87
2019-01-04T00:06:55.424Z,103160.23
2019-01-04T00:09:24.111Z,103164.52
2019-01-04T00:11:53.321Z,103161.11
2019-01-04T00:14:21.893Z,103156.92
2019-01-04T00:16:50.628Z,103153.13
2019-01-04T00:19:19.842Z,103151.36
2019-01-04T00:21:48.562Z,103151.63
2019-01-04T00:24:17.268Z,103149.09
2019-01-04T00:26:46.109Z,103143.03
2019-01-04T00:29:14.863Z,103150.89
2019-01-04T00:31:43.328Z,103150.62
2019-01-04T00:34:12.007Z,103154.92
2019-01-04T00:36:40.821Z,103166.73
2019-01-04T00:39:09.265Z,103167.62
2019-01-04T00:41:38.115Z,103171.80
2019-01-04T00:44:06.776Z,103173.69
2019-01-04T00:46:35.616Z,103166.59
2019-01-04T00:49:04.156Z,103167.73
2019-01-04T00:51:32.900Z,103159.63
2019-01-04T00:54:01.740Z,103155.07
2019-01-04T00:56:36.298Z,103153.04
2019-01-04T00:59:19.581Z,103148.98
2019-01-04T01:02:14.157Z,103152.16
2019-01-04T01:05:02.553Z,103159.48
2019-01-04T01:07:45.616Z,103166.85
2019-01-04T01:10:36.233Z,103163.55
2019-01-04T01:13:31.935Z,103159.13
2019-01-04T01:16:15.356Z,103158.55
2019-01-04T01:18:49.990Z,103160.31
2019-01-04T01:21:30.469Z,103154.25
2019-01-04T01:24:10.867Z,103155.48
2019-01-04T01:27:14.545Z,103155.98
2019-01-04T01:30:11.711Z,103156.22
2019-01-04T01:32:49.291Z,103154.19
2019-01-04T01:35:32.751Z,103152.92
2019-01-04T01:38:10.157Z,103156.48
2019-01-04T01:41:14.977Z,103155.59
2019-01-04T01:44:00.981Z,103153.19
2019-01-04T01:46:41.731Z,103160.28
2019-01-04T01:49:42.237Z,103161.45
2019-01-04T01:52:16.504Z,103165.14
2019-01-04T01:54:45.301Z,103172.58
2019-01-04T01:57:13.983Z,103176.26
2019-01-04T01:59:42.693Z,103176.26
2019-01-04T02:02:13.373Z,103170.69
2019-01-04T02:04:42.016Z,103171.31
2019-01-04T02:07:10.735Z,103171.20
2019-01-04T02:09:39.439Z,103171.70
2019-01-04T02:12:08.141Z,103170.93
2019-01-04T02:14:36.552Z,103173.73
2019-01-04T02:17:05.359Z,103186.51
2019-01-04T02:19:33.816Z,103193.60
2019-01-04T02:22:02.223Z,103194.48
2019-01-04T02:24:30.952Z,103195.75
2019-01-04T02:26:59.673Z,103193.63
2019-01-04T02:29:28.395Z,103189.45
2019-01-04T02:31:57.245Z,103181.33
2019-01-04T02:34:25.970Z,103174.99
2019-01-04T02:36:54.650Z,103169.42
2019-01-04T02:39:23.087Z,103175.37
2019-01-04T02:41:51.826Z,103174.52
2019-01-04T02:44:21.075Z,103158.58
2019-01-04T02:46:49.510Z,103158.34
2019-01-04T02:49:18.252Z,103159.86
2019-01-04T02:51:46.692Z,103156.56
2019-01-04T02:54:15.412Z,103160.72
2019-01-04T02:56:44.132Z,103175.05
2019-01-04T02:59:12.853Z,103188.46
2019-01-04T03:01:41.583Z,103172.50
2019-01-04T03:04:10.378Z,103166.44
2019-01-04T03:06:38.865Z,103168.09
2019-01-04T03:09:07.950Z,103167.71
2019-01-04T03:11:37.998Z,103167.71
2019-01-04T03:14:06.739Z,103169.73
2019-01-04T03:16:35.447Z,103169.98
2019-01-04T03:19:04.117Z,103164.92
2019-01-04T03:21:32.545Z,103170.52
2019-01-04T03:24:00.961Z,103154.54
2019-01-04T03:26:29.466Z,103150.74
2019-01-04T03:28:58.158Z,103154.92
2019-01-04T03:31:26.581Z,103161.64
2019-01-04T03:33:55.071Z,103159.34
2019-01-04T03:36:23.766Z,103153.78
2019-01-04T03:38:52.168Z,103145.41
2019-01-04T03:41:20.873Z,103139.85
2019-01-04T03:43:49.304Z,103148.07
2019-01-04T03:46:17.760Z,103153.13
2019-01-04T03:48:46.436Z,103153.02
2019-01-04T03:51:14.839Z,103157.84
2019-01-04T03:53:43.540Z,103146.80
2019-01-04T03:56:12.327Z,103142.77
2019-01-04T03:58:40.991Z,103142.13
2019-01-04T04:01:09.759Z,103139.59
2019-01-04T04:03:38.199Z,103137.56
2019-01-04T04:06:06.969Z,103132.14
2019-01-04T04:08:35.651Z,103137.70
2019-01-04T04:11:04.352Z,103132.02
2019-01-04T04:13:32.786Z,103129.23
2019-01-04T04:16:01.464Z,103124.67
2019-01-04T04:18:29.882Z,103123.52
2019-01-04T04:20:58.592Z,103118.07
2019-01-04T04:23:27.369Z,103121.27
2019-01-04T04:25:57.208Z,103124.02
2019-01-04T04:28:25.700Z,103122.41
2019-01-04T04:30:54.395Z,103118.84
2019-01-04T04:33:22.822Z,103119.60
2019-01-04T04:35:51.517Z,103121.25
2019-01-04T04:38:20.211Z,103115.92
2019-01-04T04:40:48.702Z,103124.67
2019-01-04T04:43:17.126Z,103126.31
2019-01-04T04:45:45.547Z,103134.03
2019-01-04T04:48:14.232Z,103124.16
2019-01-04T04:50:42.664Z,103125.17
2019-01-04T04:53:11.078Z,103125.17
2019-01-04T04:55:39.791Z,103131.87
2019-01-04T04:58:08.626Z,103125.28
2019-01-04T05:00:37.380Z,103126.20
2019-01-04T05:03:05.775Z,103121.87
2019-01-04T05:05:34.457Z,103134.53
2019-01-04T05:08:03.182Z,103127.81
2019-01-04T05:10:31.821Z,103127.83
2019-01-04T05:13:00.525Z,103121.87
2019-01-04T05:15:29.216Z,103122.27
2019-01-04T05:17:57.989Z,103117.08
2019-01-04T05:20:26.674Z,103111.75
2019-01-04T05:22:55.099Z,103109.75
2019-01-04T05:25:23.841Z,103101.63
2019-01-04T05:27:52.568Z,103102.77
2019-01-04T05:30:21.234Z,103114.81
2019-01-04T05:32:49.894Z,103120.76
2019-01-04T05:35:19.679Z,103123.67
2019-01-04T05:37:48.172Z,103131.38
2019-01-04T05:40:16.846Z,103130.88
2019-01-04T05:42:45.564Z,103124.94
2019-01-04T05:45:13.986Z,103121.11
2019-01-04T05:47:42.418Z,103122.88
2019-01-04T05:50:11.131Z,103122.50
2019-01-04T05:52:39.858Z,103130.36
2019-01-04T05:55:08.626Z,103123.91
2019-01-04T05:57:37.345Z,103129.09
2019-01-04T06:00:09.242Z,103135.80
2019-01-04T06:02:37.923Z,103128.59
2019-01-04T06:05:06.604Z,103113.16
2019-01-04T06:07:35.384Z,103104.04
2019-01-04T06:10:05.186Z,103109.22
2019-01-04T06:12:33.897Z,103109.22
2019-01-04T06:15:02.669Z,103102.89
2019-01-04T06:17:31.383Z,103104.80
2019-01-04T06:20:00.140Z,103106.45
2019-01-04T06:22:28.586Z,103102.39
2019-01-04T06:24:57.257Z,103102.50
2019-01-04T06:27:26.020Z,103103.54
2019-01-04T06:29:54.690Z,103103.27
2019-01-04T06:32:23.112Z,103104.04
2019-01-04T06:34:51.603Z,103096.68
2019-01-04T06:37:20.287Z,103091.73
2019-01-04T06:39:49.134Z,103093.50
2019-01-04T06:42:17.814Z,103085.29
2019-01-04T06:44:46.500Z,103079.84
2019-01-04T06:47:16.809Z,103084.41
2019-01-04T06:49:45.658Z,103085.79
2019-01-04T06:52:14.349Z,103087.44
2019-01-04T06:55:17.852Z,103080.61
2019-01-04T06:57:46.576Z,103086.55
2019-01-04T07:00:15.318Z,103105.16
2019-01-04T07:02:43.889Z,103096.80
2019-01-04T07:05:12.322Z,103100.45
2019-01-04T07:07:41.031Z,103113.61
2019-01-04T07:10:10.274Z,103103.59
2019-01-04T07:12:38.678Z,103104.48
2019-01-04T07:15:07.846Z,103104.09
2019-01-04T07:17:36.522Z,103108.78
2019-01-04T07:20:06.163Z,103110.70
2019-01-04T07:22:34.868Z,103108.28
2019-01-04T07:25:03.542Z,103111.70
2019-01-04T07:27:31.975Z,103110.94
2019-01-04T07:30:00.437Z,103106.63
2019-01-04T07:32:28.827Z,103108.55
2019-01-04T07:34:57.317Z,103112.70
2019-01-04T07:37:26.131Z,103113.61
2019-01-04T07:39:54.545Z,103108.66
2019-01-04T07:42:22.973Z,103105.86
2019-01-04T07:44:51.669Z,103108.28
2019-01-04T07:47:20.355Z,103111.20
2019-01-04T07:49:49.078Z,103119.29
2019-01-04T07:52:18.239Z,103118.52
2019-01-04T07:54:47.012Z,103125.23
2019-01-04T07:57:15.779Z,103122.09
2019-01-04T07:59:44.458Z,103118.41
2019-01-04T08:02:37.221Z,103122.20
2019-01-04T08:05:09.280Z,103117.91
2019-01-04T08:07:37.991Z,103114.50
2019-01-04T08:10:07.829Z,103126.88
2019-01-04T08:12:39.447Z,103130.06
2019-01-04T08:15:10.017Z,103133.48
2019-01-04T08:17:38.694Z,103132.72
2019-01-04T08:20:09.953Z,103116.52
2019-01-04T08:22:38.741Z,103109.16
2019-01-04T08:25:08.596Z,103114.87
2019-01-04T08:27:37.092Z,103124.86
2019-01-04T08:30:09.207Z,103120.06
2019-01-04T08:32:37.884Z,103120.83
2019-01-04T08:35:07.865Z,103124.86
2019-01-04T08:37:36.553Z,103129.92
2019-01-04T08:40:07.824Z,103129.39
2019-01-04T08:42:37.416Z,103126.59
2019-01-04T08:45:07.762Z,103123.56
2019-01-04T08:47:36.467Z,103128.09
2019-01-04T08:50:07.795Z,103125.30
2019-01-04T08:52:36.509Z,103126.06
2019-01-04T08:55:07.752Z,103117.70
2019-01-04T08:57:36.433Z,103107.95
2019-01-04T09:00:07.953Z,103108.95
2019-01-04T09:02:36.378Z,103112.02
2019-01-04T09:05:05.835Z,103112.37
2019-01-04T09:07:34.591Z,103113.09
2019-01-04T09:10:03.673Z,103112.83
2019-01-04T09:12:32.409Z,103103.46
2019-01-04T09:15:01.108Z,103099.89
2019-01-04T09:17:29.814Z,103096.48
2019-01-04T09:19:58.588Z,103092.67
2019-01-04T09:22:27.410Z,103088.22
2019-01-04T09:24:55.837Z,103083.77
2019-01-04T09:27:24.670Z,102969.84
2019-01-04T09:29:53.087Z,103094.40
2019-01-04T09:32:21.786Z,103098.58
2019-01-04T09:34:50.275Z,103091.75
2019-01-04T09:37:19.141Z,103083.38
2019-01-04T09:39:47.852Z,103082.12
2019-01-04T09:42:16.621Z,103074.24
2019-01-04T09:44:45.298Z,103074.86
2019-01-04T09:47:13.980Z,103070.83
2019-01-04T09:49:42.571Z,103085.53
2019-01-04T09:52:11.400Z,103084.37
2019-01-04T09:54:40.141Z,103065.60
2019-01-04T09:57:08.953Z,103058.39
2019-01-04T09:59:37.461Z,103057.23
2019-01-04T10:02:06.365Z,103057.77
2019-01-04T10:04:35.040Z,103056.73
2019-01-04T10:07:03.718Z,103054.42
2019-01-04T10:09:32.160Z,102929.00
2019-01-04T10:12:02.541Z,103056.72
2019-01-04T10:14:31.338Z,103049.25
2019-01-04T10:16:59.727Z,103044.41
2019-01-04T10:19:28.217Z,103041.76
2019-01-04T10:21:56.921Z,103027.81
2019-01-04T10:24:25.745Z,103031.73
2019-01-04T10:26:54.166Z,103025.05
2019-01-04T10:29:22.939Z,103021.25
2019-01-04T10:31:51.744Z,103011.61
2019-01-04T10:34:20.511Z,103010.06
2019-01-04T10:36:49.198Z,103005.49
2019-01-04T10:39:17.900Z,102995.08
2019-01-04T10:41:46.592Z,102999.49
2019-01-04T10:44:15.055Z,102994.15
2019-01-04T10:46:43.759Z,102988.20
2019-01-04T10:49:12.654Z,102970.67
2019-01-04T10:51:42.576Z,102970.02
2019-01-04T10:54:11.270Z,102965.83
2019-01-04T10:56:40.500Z,102970.27
2019-01-04T10:59:09.019Z,102967.09
2019-01-04T11:01:37.774Z,102972.03
2019-01-04T11:04:06.198Z,102969.63
2019-01-04T11:06:34.964Z,102963.82
2019-01-04T11:09:04.958Z,102967.62
2019-01-04T11:11:33.661Z,102945.05
2019-01-04T11:14:02.057Z,102946.70
2019-01-04T11:16:30.766Z,102960.91
2019-01-04T11:18:59.454Z,102949.00
2019-01-04T11:21:28.143Z,102949.83
2019-01-04T11:24:05.625Z,102945.03
2019-01-04T11:26:40.753Z,102939.68
2019-01-04T11:29:18.074Z,102943.77
2019-01-04T11:31:58.770Z,102939.19
2019-01-04T11:34:33.637Z,102934.89
2019-01-04T11:37:23.522Z,102936.93
2019-01-04T11:40:17.248Z,102934.89
2019-01-04T11:42:51.738Z,102931.36
2019-01-04T11:45:23.524Z,102937.92
2019-01-04T11:48:11.297Z,102940.45
2019-01-04T11:50:42.786Z,102936.67
2019-01-04T11:53:14.568Z,102925.55
2019-01-04T11:55:42.974Z,102933.65
2019-01-04T11:58:11.690Z,102925.05
2019-01-04T12:00:40.247Z,102923.02
2019-01-04T12:03:08.980Z,102922.24
2019-01-04T12:05:37.680Z,102917.95
2019-01-04T12:08:06.350Z,102914.91
2019-01-04T12:10:35.060Z,102908.97
2019-01-04T12:13:03.823Z,102907.81
2019-01-04T12:15:32.526Z,102904.28
2019-01-04T12:18:01.298Z,102891.33
2019-01-04T12:20:29.710Z,102887.78
2019-01-04T12:22:58.488Z,102874.86
2019-01-04T12:25:26.934Z,102869.30
2019-01-04T12:27:55.600Z,102867.75
2019-01-04T12:30:24.281Z,102871.83
2019-01-04T12:32:52.994Z,102876.12
2019-01-04T12:35:21.687Z,102881.58
2019-01-04T12:37:50.346Z,102888.58
2019-01-04T12:40:19.068Z,102893.66
2019-01-04T12:42:47.743Z,102897.17
2019-01-04T12:45:16.448Z,102896.02
2019-01-04T12:47:44.905Z,102898.80
2019-01-04T12:50:13.368Z,102902.24
2019-01-04T12:52:42.095Z,102897.45
2019-01-04T12:55:10.782Z,102886.05
2019-01-04T12:57:39.507Z,102885.55
2019-01-04T13:00:11.201Z,102876.19
2019-01-04T13:02:39.914Z,102876.47
2019-01-04T13:05:08.746Z,102865.34
2019-01-04T13:07:37.294Z,102865.34
2019-01-04T13:10:06.440Z,102863.30
2019-01-04T13:12:35.145Z,102851.02
2019-01-04T13:15:04.560Z,102856.47
2019-01-04T13:17:33.304Z,102859.99
2019-01-04T13:20:02.188Z,102861.75
2019-01-04T13:22:30.951Z,102854.16
2019-01-04T13:24:59.385Z,102860.48
2019-01-04T13:27:28.133Z,102859.89
2019-01-04T13:29:56.610Z,102853.05
2019-01-04T13:32:25.030Z,102861.64
2019-01-04T13:34:53.489Z,102857.84
2019-01-04T13:37:22.264Z,102857.73
2019-01-04T13:39:50.971Z,102854.71
2019-01-04T13:42:19.704Z,102851.68
2019-01-04T13:44:48.469Z,102845.45
2019-01-04T13:47:17.260Z,102846.51
2019-01-04T13:49:45.975Z,102843.59
2019-01-04T13:52:14.661Z,102833.09
2019-01-04T13:54:43.180Z,102832.60
2019-01-04T13:57:11.882Z,102843.61
2019-01-04T13:59:40.686Z,102836.19
2019-01-04T14:02:09.119Z,102832.98
2019-01-04T14:04:37.816Z,102839.70
2019-01-04T14:07:06.660Z,102829.74
2019-01-04T14:09:35.350Z,102830.73
2019-01-04T14:12:04.073Z,102825.56
2019-01-04T14:14:32.855Z,102826.61
2019-01-04T14:17:01.661Z,102824.95
2019-01-04T14:19:30.407Z,102824.95
2019-01-04T14:21:59.211Z,102823.80
2019-01-04T14:24:28.115Z,102820.38
2019-01-04T14:26:56.774Z,102826.33
2019-01-04T14:29:26.397Z,102825.45
2019-01-04T14:31:54.862Z,102826.50
2019-01-04T14:34:23.569Z,102822.70
2019-01-04T14:36:52.266Z,102823.86
2019-01-04T14:39:21.031Z,102815.48
2019-01-04T14:41:49.765Z,102811.30
2019-01-04T14:44:18.192Z,102797.75
2019-01-04T14:46:46.621Z,102817.63
2019-01-04T14:49:16.392Z,102815.12
2019-01-04T14:51:45.152Z,102821.60
2019-01-04T14:54:13.875Z,102826.80
2019-01-04T14:56:42.548Z,102817.44
2019-01-04T14:59:11.266Z,102821.98
2019-01-04T15:01:39.965Z,102809.56
2019-01-04T15:04:08.446Z,102808.69
2019-01-04T15:06:37.095Z,102805.16
2019-01-04T15:09:07.463Z,102808.09
2019-01-04T15:11:36.136Z,102805.34
2019-01-04T15:14:04.873Z,102794.81
2019-01-04T15:16:33.637Z,102799.11
2019-01-04T15:19:02.063Z,102795.98
2019-01-04T15:21:30.767Z,102791.69
2019-01-04T15:23:59.500Z,102795.98
2019-01-04T15:26:28.281Z,102800.55
2019-01-04T15:28:56.946Z,102805.61
2019-01-04T15:31:25.631Z,102806.60
2019-01-04T15:33:54.351Z,102804.95
2019-01-04T15:36:23.061Z,102803.19
2019-01-04T15:38:51.770Z,102798.30
2019-01-04T15:41:20.186Z,102800.33
2019-01-04T15:43:48.891Z,102811.45
2019-01-04T15:46:17.579Z,102815.25
2019-01-04T15:48:46.314Z,102820.59
2019-01-04T15:51:15.075Z,102820.59
2019-01-04T15:53:43.866Z,102812.11
2019-01-04T15:56:12.667Z,102812.39
2019-01-04T15:58:41.467Z,102792.02
2019-01-04T16:01:10.154Z,102792.52
2019-01-04T16:03:38.589Z,102786.95
2019-01-04T16:06:07.283Z,102780.48
2019-01-04T16:08:36.066Z,102775.91
2019-01-04T16:11:04.851Z,102771.12
2019-01-04T16:13:33.539Z,102784.95
2019-01-04T16:16:02.863Z,102785.55
2019-01-04T16:18:31.352Z,102785.30
2019-01-04T16:21:00.071Z,102791.49
2019-01-04T16:23:28.510Z,102793.53
2019-01-04T16:25:57.006Z,102776.08
2019-01-04T16:28:25.723Z,102793.03
2019-01-04T16:30:54.408Z,102787.75
2019-01-04T16:33:23.647Z,102786.98
2019-01-04T16:35:52.059Z,102787.64
2019-01-04T16:38:20.758Z,102775.59
2019-01-04T16:40:49.275Z,102768.55
2019-01-04T16:43:17.992Z,102754.12
2019-01-04T16:45:46.964Z,102751.77
2019-01-04T16:48:15.746Z,102747.58
2019-01-04T16:50:47.573Z,102731.12
2019-01-04T16:53:16.249Z,102737.45
2019-01-04T16:55:46.438Z,102745.81
2019-01-04T16:58:15.245Z,102755.84
2019-01-04T17:00:44.351Z,102743.03
2019-01-04T17:03:12.775Z,102743.31
2019-01-04T17:05:42.421Z,102738.25
2019-01-04T17:08:10.887Z,102737.48
2019-01-04T17:10:39.360Z,102740.28
2019-01-04T17:13:08.033Z,102736.98
2019-01-04T17:15:36.733Z,102739.80
2019-01-04T17:18:05.483Z,102730.44
2019-01-04T17:20:34.194Z,102742.33
2019-01-04T17:23:02.894Z,102737.92
2019-01-04T17:25:32.724Z,102755.04
2019-01-04T17:28:01.226Z,102734.19
2019-01-04T17:30:29.909Z,102733.80
2019-01-04T17:33:01.525Z,102739.36
2019-01-04T17:35:30.000Z,102728.73
2019-01-04T17:37:58.415Z,102730.06
2019-01-04T17:40:27.082Z,102728.27
2019-01-04T17:42:55.798Z,102723.10
2019-01-04T17:45:24.479Z,102722.22
2019-01-04T17:47:53.245Z,102716.17
2019-01-04T17:50:21.923Z,102713.42
2019-01-04T17:52:50.606Z,102719.75
2019-01-04T17:55:19.397Z,102708.91
2019-01-04T17:57:48.202Z,102719.42
2019-01-04T18:00:16.693Z,102711.16
2019-01-04T18:02:45.435Z,102715.73
2019-01-04T18:05:14.251Z,102718.76
2019-01-04T18:07:42.943Z,102711.66
2019-01-04T18:10:11.688Z,102723.05
2019-01-04T18:12:40.424Z,102722.55
2019-01-04T18:15:09.334Z,102727.34
2019-01-04T18:17:38.039Z,102720.58
2019-01-04T18:20:11.006Z,102725.52
2019-01-04T18:22:38.740Z,102721.45
2019-01-04T18:25:07.319Z,102723.49
2019-01-04T18:27:36.031Z,102734.00
2019-01-04T18:30:07.234Z,102729.81
2019-01-04T18:32:35.707Z,102728.28
2019-01-04T18:35:04.316Z,102724.20
2019-01-04T18:37:33.016Z,102737.95
2019-01-04T18:40:01.470Z,102731.69
2019-01-04T18:42:29.927Z,102730.53
2019-01-04T18:44:58.705Z,102737.52
2019-01-04T18:47:27.367Z,102735.87
2019-01-04T18:49:56.073Z,102737.52
2019-01-04T18:52:24.826Z,102742.30
2019-01-04T18:54:53.674Z,102739.66
2019-01-04T18:57:22.538Z,102754.73
2019-01-04T18:59:53.657Z,102740.33
2019-01-04T19:02:22.376Z,102739.94
2019-01-04T19:04:50.865Z,102738.28
2019-01-04T19:07:19.551Z,102733.23
2019-01-04T19:09:48.024Z,102735.76
2019-01-04T19:12:16.460Z,102744.23
2019-01-04T19:14:45.150Z,102740.33
2019-01-04T19:17:13.672Z,102737.52
2019-01-04T19:19:42.381Z,102735.27
2019-01-04T19:22:11.153Z,102737.52
2019-01-04T19:24:39.864Z,102739.50
2019-01-04T19:27:08.634Z,102740.55
2019-01-04T19:29:37.144Z,102737.24
2019-01-04T19:32:05.587Z,102736.47
2019-01-04T19:34:34.135Z,102737.73
2019-01-04T19:37:04.329Z,102739.77
2019-01-04T19:39:33.031Z,102739.00
2019-01-04T19:42:01.719Z,102737.73
2019-01-04T19:44:30.406Z,102744.06
2019-01-04T19:46:59.136Z,102739.50
2019-01-04T19:49:27.898Z,102738.51
2019-01-04T19:51:57.976Z,102742.19
2019-01-04T19:54:26.690Z,102730.70
2019-01-04T19:56:55.466Z,102736.86
2019-01-04T19:59:24.159Z,102734.71
2019-01-04T20:01:52.584Z,102732.02
2019-01-04T20:04:21.400Z,102743.19
2019-01-04T20:07:20.152Z,102734.11
2019-01-04T20:10:26.707Z,102728.16
2019-01-04T20:13:12.374Z,102727.78
2019-01-04T20:16:15.839Z,102718.92
2019-01-04T20:18:48.721Z,102723.60
2019-01-04T20:21:27.775Z,102723.22
2019-01-04T20:24:01.139Z,102725.25
2019-01-04T20:26:47.364Z,102724.09
2019-01-04T20:29:20.677Z,102716.23
2019-01-04T20:32:00.101Z,102717.71
2019-01-04T20:34:45.403Z,102723.44
2019-01-04T20:37:30.756Z,102728.88
2019-01-04T20:40:06.883Z,102722.55
2019-01-04T20:42:53.716Z,102714.47
2019-01-04T20:45:24.045Z,102721.28
2019-01-04T20:47:54.119Z,102726.84
2019-01-04T20:50:30.387Z,102722.77
2019-01-04T20:53:04.002Z,102717.71
2019-01-04T20:55:34.086Z,102721.62
2019-01-04T20:58:16.046Z,102716.83
2019-01-04T21:00:52.070Z,102707.59
2019-01-04T21:03:39.988Z,102714.41
2019-01-04T21:06:18.879Z,102714.63
2019-01-04T21:08:51.937Z,102714.13
2019-01-04T21:11:27.520Z,102718.14
2019-01-04T21:14:14.300Z,102716.00
2019-01-04T21:16:59.661Z,102714.87
2019-01-04T21:19:39.130Z,102713.34
2019-01-04T21:22:18.766Z,102711.80
2019-01-04T21:25:00.867Z,102714.70
2019-01-04T21:27:32.394Z,102711.80
2019-01-04T21:30:08.430Z,102707.61
2019-01-04T21:32:41.223Z,102705.19
2019-01-04T21:35:11.388Z,102702.55
2019-01-04T21:37:44.758Z,102697.31
2019-01-04T21:40:23.831Z,102687.96
2019-01-04T21:42:59.948Z,102697.59
2019-01-04T21:45:45.309Z,102685.92
2019-01-04T21:48:15.673Z,102692.14
2019-01-04T21:50:46.046Z,102688.84
2019-01-04T21:53:19.496Z,102685.42
2019-01-04T21:56:01.744Z,102678.93
2019-01-04T21:58:49.202Z,102696.16
2019-01-04T22:01:28.119Z,102682.34
2019-01-04T22:04:13.645Z,102680.97
2019-01-04T22:06:44.051Z,102679.31
2019-01-04T22:09:15.323Z,102522.77
2019-01-04T22:12:01.035Z,102675.73
2019-01-04T22:14:40.047Z,102671.66
2019-01-04T22:17:10.401Z,102666.20
2019-01-04T22:19:43.457Z,102665.19
2019-01-04T22:22:13.541Z,102662.66
2019-01-04T22:24:59.971Z,102658.96
2019-01-04T22:27:39.282Z,102661.59
2019-01-04T22:30:15.939Z,102659.45
2019-01-04T22:32:58.671Z,102662.48
2019-01-04T22:35:40.876Z,102650.70
2019-01-04T22:38:23.470Z,102651.09
2019-01-04T22:40:56.472Z,102640.01
2019-01-04T22:43:32.536Z,102645.95
2019-01-04T22:46:15.155Z,102642.36
2019-01-04T22:49:03.613Z,102642.75
2019-01-04T22:51:50.093Z,102638.07
2019-01-04T22:54:29.531Z,102639.44
2019-01-04T22:57:15.956Z,102639.94
2019-01-04T23:00:01.049Z,102638.80
2019-01-04T23:02:47.643Z,102633.07
2019-01-04T23:05:17.787Z,102626.35
2019-01-04T23:08:03.776Z,102622.66
2019-01-04T23:10:42.685Z,102620.62
2019-01-04T23:13:28.867Z,102619.95
2019-01-04T23:15:59.249Z,102621.21
2019-01-04T23:18:29.356Z,102614.21
2019-01-04T23:21:14.525Z,102618.11
2019-01-04T23:23:44.866Z,102617.83
2019-01-04T23:26:19.574Z,102621.34
2019-01-04T23:28:49.766Z,102613.25
2019-01-04T23:31:36.416Z,102604.52
2019-01-04T23:34:12.538Z,102608.42
2019-01-04T23:36:55.030Z,102607.26
2019-01-04T23:39:25.479Z,102602.20
2019-01-04T23:41:55.901Z,102595.19
2019-01-04T23:44:37.927Z,102583.89
2019-01-04T23:47:24.727Z,102583.22
2019-01-04T23:50:04.110Z,102588.38
2019-01-04T23:52:46.330Z,102586.73
2019-01-04T23:55:19.255Z,102586.83
2019-01-04T23:57:52.173Z,102578.84
